createdAt,value
2018-11-01T00:01:13.570Z,4.83
2018-11-01T00:03:41.159Z,5.00
2018-11-01T00:06:08.622Z,4.70
2018-11-01T00:08:36.126Z,4.60
2018-11-01T00:11:04.250Z,5.10
2018-11-01T00:13:31.757Z,4.53
2018-11-01T00:15:59.210Z,4.43
2018-11-01T00:18:26.744Z,5.20
2018-11-01T00:20:54.202Z,4.40
2018-11-01T00:23:21.742Z,4.60
2018-11-01T00:25:49.202Z,4.93
2018-11-01T00:28:16.691Z,5.07
2018-11-01T00:30:44.199Z,5.30
2018-11-01T00:33:11.690Z,4.40
2018-11-01T00:35:39.147Z,4.83
2018-11-01T00:38:06.648Z,5.03
2018-11-01T00:40:34.121Z,4.53
2018-11-01T00:43:02.557Z,5.47
2018-11-01T00:45:30.026Z,4.57
2018-11-01T00:47:57.520Z,5.23
2018-11-01T00:50:24.982Z,4.63
2018-11-01T00:52:52.460Z,4.70
2018-11-01T00:55:19.952Z,4.63
2018-11-01T00:57:47.431Z,4.00
2018-11-01T01:00:15.642Z,5.07
2018-11-01T01:02:43.211Z,4.27
2018-11-01T01:05:11.278Z,4.47
2018-11-01T01:07:38.826Z,4.57
2018-11-01T01:10:08.886Z,4.37
2018-11-01T01:12:36.428Z,4.90
2018-11-01T01:15:04.794Z,4.93
2018-11-01T01:17:32.318Z,5.20
2018-11-01T01:19:59.862Z,5.30
2018-11-01T01:22:27.459Z,4.80
2018-11-01T01:24:59.575Z,4.60
2018-11-01T01:27:27.048Z,4.90
2018-11-01T01:29:54.547Z,4.70
2018-11-01T01:32:22.026Z,4.80
2018-11-01T01:34:49.528Z,5.07
2018-11-01T01:37:16.966Z,5.00
2018-11-01T01:39:44.469Z,5.47
2018-11-01T01:42:12.008Z,5.07
2018-11-01T01:44:39.516Z,4.93
2018-11-01T01:47:06.986Z,5.10
2018-11-01T01:49:34.482Z,5.13
2018-11-01T01:52:01.962Z,5.27
2018-11-01T01:54:29.902Z,4.50
2018-11-01T01:56:57.394Z,5.07
2018-11-01T01:59:24.887Z,4.77
2018-11-01T02:01:52.336Z,4.80
2018-11-01T02:04:19.809Z,4.70
2018-11-01T02:06:47.270Z,5.07
2018-11-01T02:09:15.350Z,5.50
2018-11-01T02:11:43.485Z,4.70
2018-11-01T02:14:11.217Z,5.10
2018-11-01T02:16:38.727Z,4.30
2018-11-01T02:19:06.573Z,5.17
2018-11-01T02:21:34.040Z,5.07
2018-11-01T02:24:01.563Z,4.53
2018-11-01T02:26:29.034Z,6.00
2018-11-01T02:28:56.529Z,4.50
2018-11-01T02:31:24.763Z,4.73
2018-11-01T02:33:52.223Z,5.00
2018-11-01T02:36:19.679Z,5.20
2018-11-01T02:38:47.245Z,4.90
2018-11-01T02:41:14.684Z,4.73
2018-11-01T02:43:42.227Z,5.30
2018-11-01T02:46:09.739Z,5.10
2018-11-01T02:48:37.195Z,5.30
2018-11-01T02:51:04.686Z,5.40
2018-11-01T02:53:32.183Z,4.80
2018-11-01T02:55:59.777Z,4.67
2018-11-01T02:58:27.246Z,4.80
2018-11-01T03:00:54.760Z,4.63
2018-11-01T03:03:22.281Z,4.90
2018-11-01T03:05:49.778Z,5.30
2018-11-01T03:08:17.295Z,4.60
2018-11-01T03:10:44.764Z,4.67
2018-11-01T03:13:12.214Z,4.90
2018-11-01T03:15:39.711Z,4.93
2018-11-01T03:18:07.170Z,5.13
2018-11-01T03:20:34.725Z,4.70
2018-11-01T03:23:02.241Z,5.07
2018-11-01T03:25:30.373Z,5.53
2018-11-01T03:27:57.831Z,4.87
2018-11-01T03:30:25.303Z,4.80
2018-11-01T03:32:52.738Z,5.30
2018-11-01T03:35:20.213Z,5.20
2018-11-01T03:37:47.684Z,4.67
2018-11-01T03:40:15.251Z,4.83
2018-11-01T03:42:42.729Z,4.40
2018-11-01T03:45:11.770Z,4.90
2018-11-01T03:47:39.550Z,5.03
2018-11-01T03:50:07.295Z,5.07
2018-11-01T03:52:34.809Z,5.23
2018-11-01T03:55:02.349Z,4.73
2018-11-01T03:57:29.820Z,5.13
2018-11-01T03:59:57.306Z,5.07
2018-11-01T04:02:24.774Z,5.10
2018-11-01T04:04:52.295Z,5.80
2018-11-01T04:07:20.296Z,5.20
2018-11-01T04:09:47.798Z,5.30
2018-11-01T04:12:15.264Z,4.60
2018-11-01T04:14:42.813Z,4.83
2018-11-01T04:17:10.437Z,4.50
2018-11-01T04:19:37.810Z,5.50
2018-11-01T04:22:06.264Z,5.00
2018-11-01T04:24:34.721Z,5.20
2018-11-01T04:27:02.584Z,5.60
2018-11-01T04:29:30.166Z,5.30
2018-11-01T04:31:57.682Z,5.87
2018-11-01T04:34:25.157Z,5.10
2018-11-01T04:36:52.623Z,5.43
2018-11-01T04:39:20.018Z,5.20
2018-11-01T04:41:47.502Z,5.93
2018-11-01T04:44:15.002Z,5.57
2018-11-01T04:46:42.438Z,5.67
2018-11-01T04:49:09.879Z,5.90
2018-11-01T04:51:38.157Z,6.10
2018-11-01T04:54:05.742Z,6.03
2018-11-01T04:56:33.376Z,5.43
2018-11-01T04:59:00.855Z,5.77
2018-11-01T05:01:28.297Z,6.50
2018-11-01T05:03:55.716Z,6.20
2018-11-01T05:06:23.142Z,6.30
2018-11-01T05:08:51.055Z,6.00
2018-11-01T05:11:18.935Z,6.87
2018-11-01T05:13:46.784Z,6.50
2018-11-01T05:16:14.387Z,6.43
2018-11-01T05:18:42.508Z,6.87
2018-11-01T05:21:09.943Z,7.07
2018-11-01T05:23:37.392Z,7.00
2018-11-01T05:26:05.388Z,7.13
2018-11-01T05:28:32.663Z,7.20
2018-11-01T05:31:00.271Z,7.60
2018-11-01T05:33:27.760Z,8.23
2018-11-01T05:35:55.195Z,7.60
2018-11-01T05:38:22.603Z,7.33
2018-11-01T05:40:50.046Z,7.77
2018-11-01T05:43:23.182Z,7.63
2018-11-01T05:45:50.710Z,7.67
2018-11-01T05:48:18.132Z,7.40
2018-11-01T05:50:45.602Z,8.10
2018-11-01T05:53:12.997Z,7.60
2018-11-01T05:55:40.431Z,7.80
2018-11-01T05:58:07.871Z,7.87
2018-11-01T06:00:35.269Z,8.07
2018-11-01T06:03:02.698Z,8.20
2018-11-01T06:05:30.120Z,9.37
2018-11-01T06:08:00.743Z,8.30
2018-11-01T06:10:28.142Z,8.20
2018-11-01T06:12:55.729Z,8.40
2018-11-01T06:15:23.568Z,8.53
2018-11-01T06:17:50.996Z,9.03
2018-11-01T06:20:18.675Z,8.17
2018-11-01T06:22:46.142Z,8.87
2018-11-01T06:25:13.598Z,8.10
2018-11-01T06:27:41.057Z,9.00
2018-11-01T06:30:11.462Z,9.20
2018-11-01T06:32:38.932Z,9.07
2018-11-01T06:35:09.486Z,8.40
2018-11-01T06:37:37.134Z,8.27
2018-11-01T06:40:05.099Z,8.63
2018-11-01T06:42:32.554Z,8.00
2018-11-01T06:45:00.084Z,10.60
2018-11-01T06:47:27.467Z,8.17
2018-11-01T06:49:54.888Z,8.20
2018-11-01T06:52:22.421Z,8.73
2018-11-01T06:54:49.822Z,8.87
2018-11-01T06:57:17.276Z,7.63
2018-11-01T06:59:44.674Z,8.50
2018-11-01T07:02:12.723Z,8.00
2018-11-01T07:04:40.192Z,8.20
2018-11-01T07:07:07.638Z,8.73
2018-11-01T07:09:35.095Z,7.57
2018-11-01T07:12:02.556Z,9.03
2018-11-01T07:14:29.984Z,7.93
2018-11-01T07:16:57.456Z,8.27
2018-11-01T07:19:24.927Z,7.17
2018-11-01T07:21:52.363Z,8.13
2018-11-01T07:24:19.787Z,8.57
2018-11-01T07:26:47.238Z,8.47
2018-11-01T07:29:14.662Z,8.67
2018-11-01T07:31:42.163Z,8.57
2018-11-01T07:34:09.579Z,9.70
2018-11-01T07:36:36.964Z,9.77
2018-11-01T07:39:06.943Z,11.40
2018-11-01T07:41:34.383Z,11.63
2018-11-01T07:44:01.820Z,12.10
2018-11-01T07:46:29.236Z,10.93
2018-11-01T07:48:56.658Z,12.20
2018-11-01T07:51:24.116Z,11.60
2018-11-01T07:53:51.570Z,10.93
2018-11-01T07:56:19.004Z,12.30
2018-11-01T07:58:46.462Z,13.53
2018-11-01T08:01:13.871Z,13.00
2018-11-01T08:03:41.299Z,12.37
2018-11-01T08:06:08.751Z,12.63
2018-11-01T08:08:36.185Z,13.43
2018-11-01T08:11:04.383Z,12.80
2018-11-01T08:13:31.798Z,12.87
2018-11-01T08:15:59.246Z,13.20
2018-11-01T08:18:26.754Z,13.63
2018-11-01T08:20:54.343Z,13.13
2018-11-01T08:23:21.641Z,13.80
2018-11-01T08:25:49.059Z,13.90
2018-11-01T08:28:16.511Z,14.07
2018-11-01T08:30:43.931Z,12.80
2018-11-01T08:33:11.404Z,13.00
2018-11-01T08:35:38.856Z,13.83
2018-11-01T08:38:06.922Z,13.00
2018-11-01T08:40:34.341Z,13.60
2018-11-01T08:43:01.962Z,13.23
2018-11-01T08:45:29.358Z,13.87
2018-11-01T08:47:56.786Z,14.50
2018-11-01T08:50:24.244Z,13.90
2018-11-01T08:52:51.662Z,13.10
2018-11-01T08:55:19.059Z,13.27
2018-11-01T08:57:46.576Z,13.67
2018-11-01T09:00:14.649Z,13.70
2018-11-01T09:02:42.734Z,14.10
2018-11-01T09:05:11.190Z,13.80
2018-11-01T09:07:39.063Z,13.87
2018-11-01T09:10:09.040Z,13.03
2018-11-01T09:12:36.563Z,13.13
2018-11-01T09:15:04.858Z,14.00
2018-11-01T09:17:32.296Z,15.00
2018-11-01T09:19:59.734Z,15.37
2018-11-01T09:22:27.150Z,14.27
2018-11-01T09:24:54.628Z,14.73
2018-11-01T09:27:22.042Z,15.70
2018-11-01T09:29:49.487Z,14.57
2018-11-01T09:32:16.908Z,14.73
2018-11-01T09:34:44.338Z,14.70
2018-11-01T09:37:11.830Z,14.73
2018-11-01T09:39:39.255Z,15.17
2018-11-01T09:42:07.546Z,15.60
2018-11-01T09:44:35.040Z,15.03
2018-11-01T09:47:02.860Z,14.93
2018-11-01T09:49:30.030Z,15.10
2018-11-01T09:51:57.485Z,14.70
2018-11-01T09:54:25.160Z,14.60
2018-11-01T09:56:52.626Z,14.70
2018-11-01T09:59:20.080Z,14.70
2018-11-01T10:01:47.570Z,15.20
2018-11-01T10:04:15.078Z,14.70
2018-11-01T10:06:42.514Z,13.20
2018-11-01T10:09:10.420Z,13.60
2018-11-01T10:11:37.906Z,14.53
2018-11-01T10:14:05.715Z,13.63
2018-11-01T10:16:33.266Z,13.53
2018-11-01T10:19:00.673Z,14.10
2018-11-01T10:21:28.182Z,14.23
2018-11-01T10:23:55.564Z,14.43
2018-11-01T10:26:22.954Z,14.37
2018-11-01T10:28:50.512Z,13.37
2018-11-01T10:31:17.962Z,15.00
2018-11-01T10:33:45.447Z,14.67
2018-11-01T10:36:12.941Z,14.00
2018-11-01T10:38:40.384Z,14.70
2018-11-01T10:41:07.825Z,15.17
2018-11-01T10:43:35.227Z,15.70
2018-11-01T10:46:02.682Z,15.27
2018-11-01T10:48:30.111Z,13.50
2018-11-01T10:50:57.563Z,14.80
2018-11-01T10:53:25.131Z,14.00
2018-11-01T10:55:52.569Z,16.93
2018-11-01T10:58:19.970Z,14.30
2018-11-01T11:00:54.248Z,13.40
2018-11-01T11:03:21.561Z,15.20
2018-11-01T11:05:49.015Z,15.00
2018-11-01T11:08:16.429Z,14.77
2018-11-01T11:10:43.862Z,17.10
2018-11-01T11:13:11.265Z,16.43
2018-11-01T11:15:38.765Z,16.23
2018-11-01T11:18:06.435Z,16.77
2018-11-01T11:20:34.132Z,16.50
2018-11-01T11:23:01.358Z,16.03
2018-11-01T11:25:28.815Z,16.87
2018-11-01T11:27:56.231Z,15.90
2018-11-01T11:30:23.841Z,16.90
2018-11-01T11:32:51.123Z,16.83
2018-11-01T11:35:18.723Z,18.20
2018-11-01T11:37:46.116Z,17.00
2018-11-01T11:40:13.545Z,17.93
2018-11-01T11:42:41.237Z,17.10
2018-11-01T11:45:09.930Z,17.83
2018-11-01T11:47:37.475Z,18.33
2018-11-01T11:50:06.164Z,17.03
2018-11-01T11:52:33.572Z,17.30
2018-11-01T11:55:01.030Z,17.67
2018-11-01T11:57:28.486Z,18.50
2018-11-01T11:59:55.943Z,19.63
2018-11-01T12:02:23.443Z,17.43
2018-11-01T12:04:50.878Z,18.43
2018-11-01T12:07:18.290Z,18.60
2018-11-01T12:09:45.735Z,17.83
2018-11-01T12:12:13.176Z,18.73
2018-11-01T12:14:40.596Z,17.90
2018-11-01T12:17:08.059Z,17.90
2018-11-01T12:19:35.549Z,18.27
2018-11-01T12:22:02.987Z,18.40
2018-11-01T12:24:30.543Z,17.67
2018-11-01T12:26:57.979Z,17.67
2018-11-01T12:29:25.396Z,17.47
2018-11-01T12:31:52.831Z,18.90
2018-11-01T12:34:20.235Z,16.70
2018-11-01T12:36:47.718Z,17.43
2018-11-01T12:39:15.132Z,18.73
2018-11-01T12:41:42.643Z,17.50
2018-11-01T12:44:10.072Z,17.27
2018-11-01T12:46:37.574Z,18.37
2018-11-01T12:49:05.434Z,18.10
2018-11-01T12:51:33.001Z,19.00
2018-11-01T12:54:00.402Z,16.60
2018-11-01T12:56:27.846Z,18.67
2018-11-01T12:58:55.296Z,18.90
2018-11-01T13:01:22.711Z,19.00
2018-11-01T13:03:50.126Z,18.20
2018-11-01T13:06:17.559Z,19.03
2018-11-01T13:08:45.096Z,19.17
2018-11-01T13:11:12.523Z,19.40
2018-11-01T13:13:39.935Z,19.50
2018-11-01T13:16:07.360Z,18.33
2018-11-01T13:18:34.774Z,18.43
2018-11-01T13:21:02.250Z,18.30
2018-11-01T13:23:29.658Z,19.43
2018-11-01T13:25:57.069Z,18.10
2018-11-01T13:28:24.469Z,19.53
2018-11-01T13:30:51.902Z,19.20
2018-11-01T13:33:19.323Z,20.97
2018-11-01T13:35:46.771Z,20.43
2018-11-01T13:38:14.212Z,20.43
2018-11-01T13:40:42.032Z,19.03
2018-11-01T13:43:09.199Z,20.10
2018-11-01T13:45:36.635Z,21.10
2018-11-01T13:48:04.317Z,21.17
2018-11-01T13:50:31.764Z,21.80
2018-11-01T13:52:59.430Z,22.20
2018-11-01T13:55:26.882Z,21.10
2018-11-01T13:57:54.359Z,21.47
2018-11-01T14:00:22.746Z,20.33
2018-11-01T14:02:50.194Z,21.30
2018-11-01T14:05:17.598Z,21.40
2018-11-01T14:07:45.210Z,20.90
2018-11-01T14:10:13.973Z,19.97
2018-11-01T14:12:41.665Z,21.43
2018-11-01T14:15:10.256Z,20.10
2018-11-01T14:17:37.677Z,21.83
2018-11-01T14:20:06.703Z,21.60
2018-11-01T14:22:34.190Z,22.27
2018-11-01T14:25:01.617Z,21.80
2018-11-01T14:27:29.080Z,21.40
2018-11-01T14:29:56.502Z,22.70
2018-11-01T14:32:23.946Z,22.93
2018-11-01T14:34:51.371Z,20.67
2018-11-01T14:37:18.860Z,21.90
2018-11-01T14:39:46.268Z,22.90
2018-11-01T14:42:13.766Z,22.00
2018-11-01T14:44:41.323Z,23.23
2018-11-01T14:47:08.685Z,22.50
2018-11-01T14:49:36.159Z,22.60
2018-11-01T14:52:03.910Z,22.30
2018-11-01T14:54:32.537Z,23.13
2018-11-01T14:57:00.478Z,22.83
2018-11-01T14:59:27.593Z,23.17
2018-11-01T15:01:53.752Z,25.20
2018-11-01T15:04:21.151Z,25.67
2018-11-01T15:06:48.766Z,26.73
2018-11-01T15:09:16.122Z,24.17
2018-11-01T15:11:43.688Z,26.33
2018-11-01T15:14:11.237Z,27.93
2018-11-01T15:16:39.005Z,27.37
2018-11-01T15:19:06.887Z,26.90
2018-11-01T15:21:34.451Z,26.13
2018-11-01T15:24:01.900Z,26.33
2018-11-01T15:26:29.341Z,27.37
2018-11-01T15:28:56.807Z,27.07
2018-11-01T15:31:24.208Z,27.33
2018-11-01T15:33:51.837Z,26.73
2018-11-01T15:36:19.272Z,25.50
2018-11-01T15:38:46.706Z,25.83
2018-11-01T15:41:14.235Z,26.80
2018-11-01T15:43:42.272Z,26.30
2018-11-01T15:46:10.510Z,26.53
2018-11-01T15:48:38.100Z,24.40
2018-11-01T15:51:06.415Z,25.00
2018-11-01T15:53:33.929Z,26.03
2018-11-01T15:56:01.369Z,25.80
2018-11-01T15:58:28.822Z,26.63
2018-11-01T16:00:56.338Z,25.43
2018-11-01T16:03:23.900Z,26.33
2018-11-01T16:05:51.275Z,25.67
2018-11-01T16:08:18.758Z,26.43
2018-11-01T16:10:46.180Z,26.70
2018-11-01T16:13:13.755Z,26.30
2018-11-01T16:15:41.239Z,27.53
2018-11-01T16:18:08.686Z,27.37
2018-11-01T16:20:36.106Z,27.00
2018-11-01T16:23:03.573Z,27.57
2018-11-01T16:25:30.997Z,27.20
2018-11-01T16:27:58.503Z,28.80
2018-11-01T16:30:25.919Z,27.53
2018-11-01T16:32:53.512Z,27.93
2018-11-01T16:35:20.996Z,28.07
2018-11-01T16:37:48.762Z,29.83
2018-11-01T16:40:16.210Z,27.57
2018-11-01T16:42:43.737Z,27.27
2018-11-01T16:45:13.252Z,28.57
2018-11-01T16:47:40.911Z,30.20
2018-11-01T16:50:08.602Z,28.83
2018-11-01T16:52:36.156Z,27.97
2018-11-01T16:55:03.678Z,26.00
2018-11-01T16:57:31.282Z,27.00
2018-11-01T16:59:58.750Z,28.83
2018-11-01T17:02:26.166Z,28.57
2018-11-01T17:04:53.630Z,27.80
2018-11-01T17:07:21.073Z,27.17
2018-11-01T17:09:48.539Z,28.00
2018-11-01T17:12:15.961Z,26.90
2018-11-01T17:14:43.435Z,27.80
2018-11-01T17:17:10.858Z,29.10
2018-11-01T17:19:38.327Z,28.90
2018-11-01T17:22:05.771Z,28.40
2018-11-01T17:24:33.251Z,28.83
2018-11-01T17:27:00.686Z,27.80
2018-11-01T17:29:28.221Z,28.50
2018-11-01T17:31:55.712Z,28.73
2018-11-01T17:34:23.217Z,31.00
2018-11-01T17:36:50.743Z,29.73
2018-11-01T17:39:18.211Z,30.50
2018-11-01T17:41:45.715Z,30.10
2018-11-01T17:44:13.269Z,29.10
2018-11-01T17:46:40.700Z,28.57
2018-11-01T17:49:08.427Z,28.37
2018-11-01T17:51:35.864Z,29.83
2018-11-01T17:54:03.358Z,28.63
2018-11-01T17:56:30.836Z,30.30
2018-11-01T17:58:58.335Z,29.70
2018-11-01T18:01:25.732Z,29.37
2018-11-01T18:03:53.209Z,30.50
2018-11-01T18:06:20.647Z,29.07
2018-11-01T18:08:48.114Z,31.10
2018-11-01T18:11:15.602Z,27.70
2018-11-01T18:13:43.049Z,28.90
2018-11-01T18:16:10.495Z,28.67
2018-11-01T18:18:37.951Z,29.57
2018-11-01T18:21:05.424Z,27.90
2018-11-01T18:23:32.923Z,26.87
2018-11-01T18:26:00.404Z,26.07
2018-11-01T18:28:27.858Z,27.13
2018-11-01T18:30:55.346Z,27.93
2018-11-01T18:33:22.817Z,29.00
2018-11-01T18:35:50.310Z,28.10
2018-11-01T18:38:17.810Z,28.90
2018-11-01T18:40:45.285Z,28.13
2018-11-01T18:43:12.851Z,28.17
2018-11-01T18:45:40.305Z,28.10
2018-11-01T18:48:07.870Z,28.90
2018-11-01T18:50:35.300Z,28.00
2018-11-01T18:53:02.785Z,29.43
2018-11-01T18:55:30.215Z,28.20
2018-11-01T18:57:57.687Z,28.47
2018-11-01T19:00:25.131Z,28.13
2018-11-01T19:02:52.631Z,27.57
2018-11-01T19:05:20.123Z,27.37
2018-11-01T19:07:47.548Z,28.20
2018-11-01T19:10:15.247Z,27.70
2018-11-01T19:12:42.718Z,27.77
2018-11-01T19:15:11.384Z,28.07
2018-11-01T19:17:39.781Z,28.10
2018-11-01T19:20:08.109Z,29.47
2018-11-01T19:22:36.049Z,32.40
2018-11-01T19:25:03.557Z,32.13
2018-11-01T19:27:31.220Z,31.13
2018-11-01T19:29:58.477Z,32.67
2018-11-01T19:32:25.970Z,33.00
2018-11-01T19:34:53.435Z,34.47
2018-11-01T19:37:20.996Z,33.63
2018-11-01T19:39:48.498Z,33.10
2018-11-01T19:42:16.589Z,33.07
2018-11-01T19:44:44.039Z,34.23
2018-11-01T19:47:11.642Z,34.07
2018-11-01T19:49:39.392Z,34.60
2018-11-01T19:52:06.831Z,34.57
2018-11-01T19:54:34.591Z,33.10
2018-11-01T19:57:01.995Z,32.03
2018-11-01T19:59:29.421Z,31.60
2018-11-01T20:01:56.895Z,33.00
2018-11-01T20:04:24.417Z,33.90
2018-11-01T20:06:51.842Z,33.43
2018-11-01T20:09:19.307Z,34.00
2018-11-01T20:11:46.706Z,36.73
2018-11-01T20:14:14.166Z,34.30
2018-11-01T20:16:41.684Z,36.23
2018-11-01T20:19:09.255Z,36.20
2018-11-01T20:21:36.566Z,36.97
2018-11-01T20:24:04.212Z,38.20
2018-11-01T20:26:31.643Z,37.23
2018-11-01T20:28:59.127Z,38.47
2018-11-01T20:31:26.704Z,37.17
2018-11-01T20:33:54.124Z,36.87
2018-11-01T20:36:21.590Z,37.30
2018-11-01T20:38:49.077Z,36.17
2018-11-01T20:41:16.499Z,34.80
2018-11-01T20:43:44.003Z,36.13
2018-11-01T20:46:11.472Z,35.67
2018-11-01T20:48:38.991Z,36.23
2018-11-01T20:51:06.426Z,34.20
2018-11-01T20:53:33.901Z,34.30
2018-11-01T20:56:01.654Z,35.33
2018-11-01T20:58:29.102Z,35.47
2018-11-01T21:00:56.507Z,33.90
2018-11-01T21:03:23.917Z,33.00
2018-11-01T21:05:51.431Z,34.43
2018-11-01T21:08:18.923Z,34.60
2018-11-01T21:10:46.417Z,33.73
2018-11-01T21:13:13.806Z,36.83
2018-11-01T21:15:41.231Z,33.40
2018-11-01T21:18:08.692Z,34.67
2018-11-01T21:20:36.167Z,33.90
2018-11-01T21:23:03.898Z,32.73
2018-11-01T21:25:31.314Z,33.13
2018-11-01T21:27:58.808Z,33.33
2018-11-01T21:30:26.220Z,32.80
2018-11-01T21:32:53.707Z,31.67
2018-11-01T21:35:21.304Z,34.10
2018-11-01T21:37:48.670Z,33.63
2018-11-01T21:40:16.118Z,33.47
2018-11-01T21:42:43.534Z,33.20
2018-11-01T21:45:12.452Z,34.50
2018-11-01T21:47:40.244Z,32.60
2018-11-01T21:50:07.854Z,34.60
2018-11-01T21:52:35.331Z,32.13
2018-11-01T21:55:02.861Z,32.13
2018-11-01T21:57:30.329Z,32.53
2018-11-01T21:59:57.755Z,33.20
2018-11-01T22:02:25.220Z,34.97
2018-11-01T22:04:52.691Z,33.53
2018-11-01T22:07:20.184Z,34.50
2018-11-01T22:09:47.736Z,32.60
2018-11-01T22:12:15.183Z,33.40
2018-11-01T22:14:42.606Z,33.47
2018-11-01T22:17:10.071Z,33.70
2018-11-01T22:19:37.491Z,32.47
2018-11-01T22:22:05.001Z,33.20
2018-11-01T22:24:32.463Z,33.00
2018-11-01T22:26:59.995Z,33.80
2018-11-01T22:29:27.522Z,31.83
2018-11-01T22:31:54.931Z,31.27
2018-11-01T22:34:22.431Z,33.00
2018-11-01T22:36:49.892Z,33.27
2018-11-01T22:39:17.297Z,32.27
2018-11-01T22:41:44.815Z,32.87
2018-11-01T22:44:12.250Z,31.27
2018-11-01T22:46:39.707Z,32.33
2018-11-01T22:49:07.183Z,31.50
2018-11-01T22:51:34.641Z,31.67
2018-11-01T22:54:02.210Z,32.33
2018-11-01T22:56:29.679Z,32.30
2018-11-01T22:58:57.173Z,31.80
2018-11-01T23:01:24.652Z,31.77
2018-11-01T23:03:52.063Z,31.40
2018-11-01T23:06:19.540Z,31.37
2018-11-01T23:08:47.066Z,32.10
2018-11-01T23:11:14.537Z,31.97
2018-11-01T23:13:41.970Z,31.83
2018-11-01T23:16:09.419Z,32.90
2018-11-01T23:18:36.868Z,33.33
2018-11-01T23:21:04.630Z,32.13
2018-11-01T23:23:32.060Z,32.50
2018-11-01T23:25:59.559Z,32.07
2018-11-01T23:28:26.975Z,32.60
2018-11-01T23:30:54.439Z,31.47
2018-11-01T23:33:21.843Z,31.97
2018-11-01T23:35:49.330Z,30.17
2018-11-01T23:38:22.403Z,30.93
2018-11-01T23:40:55.553Z,30.70
2018-11-01T23:43:28.718Z,32.40
2018-11-01T23:46:02.039Z,32.23
2018-11-01T23:48:29.048Z,31.27
2018-11-01T23:51:01.175Z,31.80
2018-11-01T23:53:29.806Z,32.83
2018-11-01T23:55:57.788Z,31.80
2018-11-01T23:58:25.495Z,30.63
